createdAt,value
2023-04-20T00:00:12.649Z,6.78
2023-04-20T00:02:21.128Z,6.74
2023-04-20T00:04:29.242Z,6.74
2023-04-20T00:06:34.668Z,6.76
2023-04-20T00:08:39.940Z,6.78
2023-04-20T00:10:45.132Z,6.80
2023-04-20T00:12:50.089Z,6.77
2023-04-20T00:14:55.242Z,6.75
2023-04-20T00:17:00.344Z,6.76
2023-04-20T00:19:05.593Z,6.76
2023-04-20T00:21:13.737Z,6.76
2023-04-20T00:23:19.074Z,6.76
2023-04-20T00:25:24.254Z,6.76
2023-04-20T00:27:29.494Z,6.73
2023-04-20T00:29:34.750Z,6.75
2023-04-20T00:31:40.112Z,6.75
2023-04-20T00:33:45.308Z,6.74
2023-04-20T00:35:50.471Z,6.73
2023-04-20T00:37:58.070Z,6.68
2023-04-20T00:40:03.119Z,6.73
2023-04-20T00:42:08.654Z,6.73
2023-04-20T00:44:14.463Z,6.71
2023-04-20T00:46:19.855Z,6.68
2023-04-20T00:48:28.485Z,6.62
2023-04-20T00:50:33.724Z,6.56
2023-04-20T00:52:39.807Z,6.55
2023-04-20T00:54:47.574Z,6.56
2023-04-20T00:56:54.025Z,6.51
2023-04-20T00:58:59.309Z,6.49
2023-04-20T01:01:04.364Z,6.46
2023-04-20T01:03:10.837Z,6.47
2023-04-20T01:05:16.010Z,6.39
2023-04-20T01:07:21.073Z,6.32
2023-04-20T01:09:26.358Z,6.32
2023-04-20T01:11:34.207Z,6.22
2023-04-20T01:13:40.084Z,6.20
2023-04-20T01:15:45.120Z,6.18
2023-04-20T01:17:50.316Z,6.21
2023-04-20T01:19:55.278Z,6.13
2023-04-20T01:22:00.152Z,6.13
2023-04-20T01:24:08.592Z,6.06
2023-04-20T01:26:18.499Z,6.06
2023-04-20T01:28:24.582Z,6.15
2023-04-20T01:30:29.608Z,6.09
2023-04-20T01:32:34.723Z,6.04
2023-04-20T01:34:40.322Z,6.01
2023-04-20T01:36:45.305Z,5.98
2023-04-20T01:38:50.618Z,5.91
2023-04-20T01:40:59.381Z,5.87
2023-04-20T01:43:04.292Z,5.83
2023-04-20T01:45:10.616Z,5.77
2023-04-20T01:47:15.551Z,5.78
2023-04-20T01:49:20.483Z,5.72
2023-04-20T01:51:28.484Z,5.69
2023-04-20T01:53:33.398Z,5.61
2023-04-20T01:55:38.715Z,5.60
2023-04-20T01:57:46.846Z,5.56
2023-04-20T01:59:54.558Z,5.54
2023-04-20T02:01:59.713Z,5.50
2023-04-20T02:04:04.847Z,5.53
2023-04-20T02:06:10.091Z,5.59
2023-04-20T02:08:15.428Z,5.57
2023-04-20T02:10:20.532Z,5.53
2023-04-20T02:12:25.886Z,5.52
2023-04-20T02:14:33.504Z,5.59
2023-04-20T02:16:38.853Z,5.57
2023-04-20T02:18:45.688Z,5.67
2023-04-20T02:20:51.152Z,5.64
2023-04-20T02:22:56.049Z,5.70
2023-04-20T02:25:02.033Z,5.71
2023-04-20T02:27:07.172Z,5.75
2023-04-20T02:29:12.574Z,5.73
2023-04-20T02:31:21.978Z,5.77
2023-04-20T02:33:27.460Z,5.72
2023-04-20T02:35:32.482Z,5.71
2023-04-20T02:37:38.233Z,5.81
2023-04-20T02:39:43.364Z,5.80
2023-04-20T02:41:50.367Z,5.87
2023-04-20T02:43:55.405Z,5.97
2023-04-20T02:46:00.479Z,5.98
2023-04-20T02:48:09.873Z,5.98
2023-04-20T02:50:15.006Z,6.10
2023-04-20T02:52:20.219Z,6.08
2023-04-20T02:54:27.947Z,6.04
2023-04-20T02:56:33.100Z,6.12
2023-04-20T02:58:38.395Z,6.17
2023-04-20T03:00:43.448Z,6.20
2023-04-20T03:02:49.891Z,6.17
2023-04-20T03:04:57.719Z,6.22
2023-04-20T03:07:02.918Z,6.24
2023-04-20T03:09:09.627Z,6.25
2023-04-20T03:11:14.712Z,6.29
2023-04-20T03:13:19.823Z,6.34
2023-04-20T03:15:24.904Z,6.37
2023-04-20T03:17:29.959Z,6.44
2023-04-20T03:19:34.958Z,6.47
2023-04-20T03:21:43.261Z,6.48
2023-04-20T03:23:50.348Z,6.51
2023-04-20T03:25:55.499Z,6.48
2023-04-20T03:28:00.414Z,6.48
2023-04-20T03:30:05.463Z,6.48
2023-04-20T03:32:10.507Z,6.47
2023-04-20T03:34:15.623Z,6.44
2023-04-20T03:36:20.631Z,6.50
2023-04-20T03:38:28.135Z,6.50
2023-04-20T03:40:33.271Z,6.52
2023-04-20T03:42:38.214Z,6.62
2023-04-20T03:44:43.421Z,6.64
2023-04-20T03:46:51.333Z,6.76
2023-04-20T03:48:56.274Z,6.85
2023-04-20T03:51:01.512Z,6.98
2023-04-20T03:53:06.491Z,7.03
2023-04-20T03:55:14.208Z,7.04
2023-04-20T03:57:21.575Z,7.06
2023-04-20T03:59:26.595Z,7.06
2023-04-20T04:01:32.044Z,7.11
2023-04-20T04:03:39.845Z,7.14
2023-04-20T04:05:45.131Z,7.16
2023-04-20T04:07:50.181Z,7.13
2023-04-20T04:09:55.187Z,7.15
2023-04-20T04:12:04.939Z,7.13
2023-04-20T04:14:10.016Z,7.16
2023-04-20T04:16:15.011Z,7.16
2023-04-20T04:18:20.191Z,7.18
2023-04-20T04:20:25.171Z,7.21
2023-04-20T04:22:30.629Z,7.26
2023-04-20T04:24:38.562Z,7.20
2023-04-20T04:26:43.682Z,7.28
2023-04-20T04:28:51.474Z,7.32
2023-04-20T04:30:56.576Z,7.27
2023-04-20T04:33:05.190Z,7.29
2023-04-20T04:35:13.736Z,7.30
2023-04-20T04:37:22.065Z,7.32
2023-04-20T04:39:27.080Z,7.45
2023-04-20T04:41:32.086Z,7.50
2023-04-20T04:43:38.689Z,7.50
2023-04-20T04:45:46.229Z,7.47
2023-04-20T04:47:53.162Z,7.46
2023-04-20T04:49:59.837Z,7.58
2023-04-20T04:52:04.979Z,7.52
2023-04-20T04:54:09.949Z,7.51
2023-04-20T04:56:15.102Z,7.53
2023-04-20T04:58:20.050Z,7.57
2023-04-20T05:00:25.854Z,7.60
2023-04-20T05:02:33.796Z,7.56
2023-04-20T05:04:40.057Z,7.59
2023-04-20T05:06:45.156Z,7.61
2023-04-20T05:08:50.176Z,7.69
2023-04-20T05:10:57.758Z,7.70
2023-04-20T05:13:03.128Z,7.73
2023-04-20T05:15:09.936Z,7.75
2023-04-20T05:17:15.180Z,7.74
2023-04-20T05:19:23.021Z,7.80
2023-04-20T05:21:28.692Z,7.79
2023-04-20T05:23:33.643Z,7.79
2023-04-20T05:25:39.569Z,7.86
2023-04-20T05:27:44.739Z,7.88
2023-04-20T05:29:49.693Z,7.91
2023-04-20T05:31:54.837Z,7.93
2023-04-20T05:33:59.971Z,7.91
2023-04-20T05:36:11.510Z,7.95
2023-04-20T05:38:16.611Z,7.97
2023-04-20T05:40:24.823Z,8.04
2023-04-20T05:42:30.081Z,8.03
2023-04-20T05:44:36.799Z,8.09
2023-04-20T05:46:42.486Z,8.10
2023-04-20T05:48:49.633Z,8.19
2023-04-20T05:50:54.695Z,8.14
2023-04-20T05:53:02.724Z,8.15
2023-04-20T05:55:09.383Z,8.12
2023-04-20T05:57:14.841Z,8.12
2023-04-20T05:59:20.411Z,8.19
2023-04-20T06:01:26.350Z,8.18
2023-04-20T06:03:32.007Z,8.27
2023-04-20T06:05:39.504Z,8.21
2023-04-20T06:07:44.825Z,8.21
2023-04-20T06:09:55.242Z,8.23
2023-04-20T06:12:00.775Z,8.24
2023-04-20T06:14:06.006Z,8.29
2023-04-20T06:16:11.257Z,8.29
2023-04-20T06:18:20.211Z,8.32
2023-04-20T06:20:27.482Z,8.32
2023-04-20T06:22:32.535Z,8.27
2023-04-20T06:24:42.487Z,8.36
2023-04-20T06:26:49.981Z,8.35
2023-04-20T06:28:54.983Z,8.40
2023-04-20T06:31:00.123Z,8.44
2023-04-20T06:33:06.086Z,8.45
2023-04-20T06:35:12.674Z,8.49
2023-04-20T06:37:21.250Z,8.48
2023-04-20T06:39:26.239Z,8.44
2023-04-20T06:41:31.253Z,8.43
2023-04-20T06:43:39.892Z,8.41
2023-04-20T06:45:45.163Z,8.41
2023-04-20T06:47:50.370Z,8.38
2023-04-20T06:49:55.569Z,8.41
2023-04-20T06:52:01.192Z,8.49
2023-04-20T06:54:06.322Z,8.52
2023-04-20T06:56:14.414Z,8.62
2023-04-20T06:58:19.554Z,8.63
2023-04-20T07:00:28.688Z,8.64
2023-04-20T07:02:33.793Z,8.60
2023-04-20T07:04:39.552Z,8.59
2023-04-20T07:06:44.687Z,8.54
2023-04-20T07:08:49.824Z,8.50
2023-04-20T07:10:54.733Z,8.42
2023-04-20T07:12:59.590Z,8.41
2023-04-20T07:15:05.642Z,8.31
2023-04-20T07:17:12.937Z,8.25
2023-04-20T07:19:19.906Z,8.22
2023-04-20T07:21:27.540Z,8.10
2023-04-20T07:23:32.379Z,8.04
2023-04-20T07:25:38.142Z,7.99
2023-04-20T07:27:44.233Z,7.90
2023-04-20T07:29:49.451Z,7.85
2023-04-20T07:31:58.213Z,7.87
2023-04-20T07:34:06.107Z,7.82
2023-04-20T07:36:12.457Z,7.77
2023-04-20T07:38:20.278Z,7.70
2023-04-20T07:40:25.818Z,7.64
2023-04-20T07:42:31.623Z,7.65
2023-04-20T07:44:36.816Z,7.55
2023-04-20T07:46:42.605Z,7.48
2023-04-20T07:48:50.748Z,7.53
2023-04-20T07:51:02.906Z,7.49
2023-04-20T07:55:44.177Z,7.22
2023-04-20T07:57:49.537Z,7.12
2023-04-20T07:59:57.506Z,7.00
2023-04-20T08:02:03.963Z,7.02
2023-04-20T08:04:14.452Z,7.04
2023-04-20T08:06:35.886Z,7.01
2023-04-20T08:08:54.191Z,6.96
2023-04-20T08:11:01.063Z,6.96
2023-04-20T08:13:09.710Z,6.90
2023-04-20T08:15:20.249Z,6.84
2023-04-20T08:17:32.355Z,6.80
2023-04-20T08:19:43.744Z,6.73
2023-04-20T08:22:03.839Z,6.69
2023-04-20T08:24:10.583Z,6.75
2023-04-20T08:26:21.351Z,6.69
2023-04-20T08:28:33.582Z,6.66
2023-04-20T08:30:40.713Z,6.67
2023-04-20T08:32:45.911Z,6.68
2023-04-20T08:34:54.390Z,6.69
2023-04-20T08:37:02.191Z,6.74
2023-04-20T08:39:12.620Z,6.62
2023-04-20T08:41:20.077Z,6.57
2023-04-20T08:43:25.248Z,6.53
2023-04-20T08:45:30.806Z,6.63
2023-04-20T08:47:39.446Z,6.56
2023-04-20T08:49:50.979Z,6.46
2023-04-20T08:51:55.938Z,6.40
2023-04-20T08:54:08.541Z,6.41
2023-04-20T08:56:13.798Z,6.42
2023-04-20T08:58:19.754Z,6.42
2023-04-20T09:00:25.798Z,6.47
2023-04-20T09:02:31.102Z,6.54
2023-04-20T09:04:36.624Z,6.55
2023-04-20T09:06:47.577Z,6.55
2023-04-20T09:08:52.887Z,6.72
2023-04-20T09:11:00.781Z,6.75
2023-04-20T09:13:06.116Z,6.77
2023-04-20T09:15:13.901Z,6.78
2023-04-20T09:17:23.787Z,6.84
2023-04-20T09:19:29.946Z,6.82
2023-04-20T09:21:36.168Z,6.87
2023-04-20T09:23:43.718Z,6.85
2023-04-20T09:25:50.504Z,6.79
2023-04-20T09:28:02.252Z,6.80
2023-04-20T09:30:08.619Z,6.71
2023-04-20T09:32:26.156Z,6.73
2023-04-20T09:34:31.941Z,6.68
2023-04-20T09:36:41.521Z,6.75
2023-04-20T09:38:47.196Z,6.71
2023-04-20T09:40:55.397Z,6.71
2023-04-20T09:43:07.135Z,6.85
2023-04-20T09:45:17.002Z,6.73
2023-04-20T09:47:26.928Z,6.73
2023-04-20T09:49:32.916Z,6.80
2023-04-20T09:51:41.869Z,6.92
2023-04-20T09:53:50.650Z,6.97
2023-04-20T09:55:56.795Z,6.96
2023-04-20T09:58:05.414Z,6.90
2023-04-20T10:00:13.753Z,7.00
2023-04-20T10:02:21.319Z,7.24
2023-04-20T10:04:26.376Z,7.46
2023-04-20T10:06:33.695Z,7.59
2023-04-20T10:08:44.355Z,7.65
2023-04-20T10:10:50.894Z,7.75
2023-04-20T10:12:56.991Z,7.43
2023-04-20T10:15:05.180Z,7.45
2023-04-20T10:17:11.964Z,7.50
2023-04-20T10:19:18.796Z,7.37
2023-04-20T10:21:23.887Z,7.54
2023-04-20T10:23:32.673Z,7.50
2023-04-20T10:25:38.596Z,7.70
2023-04-20T10:27:43.631Z,7.78
2023-04-20T10:29:51.150Z,7.72
2023-04-20T10:31:59.002Z,7.71
2023-04-20T10:34:04.045Z,7.90
2023-04-20T10:36:10.053Z,8.00
2023-04-20T10:38:15.350Z,8.03
2023-04-20T10:40:27.740Z,8.11
2023-04-20T10:42:32.718Z,8.32
2023-04-20T10:44:40.598Z,8.08
2023-04-20T10:46:45.694Z,8.29
2023-04-20T10:49:01.728Z,8.36
2023-04-20T10:51:13.714Z,8.56
2023-04-20T10:53:23.633Z,8.65
2023-04-20T10:55:29.254Z,8.47
2023-04-20T10:57:34.271Z,8.68
2023-04-20T10:59:42.367Z,8.83
2023-04-20T11:01:48.586Z,8.72
2023-04-20T11:03:54.996Z,8.84
2023-04-20T11:06:04.324Z,9.01
2023-04-20T11:08:10.575Z,8.86
2023-04-20T11:10:16.037Z,8.93
2023-04-20T11:12:25.281Z,8.87
2023-04-20T11:14:31.003Z,8.84
2023-04-20T11:16:49.663Z,8.84
2023-04-20T11:18:58.546Z,8.75
2023-04-20T11:21:07.081Z,8.74
2023-04-20T11:23:12.310Z,8.77
2023-04-20T11:25:17.684Z,8.76
2023-04-20T11:27:24.979Z,8.69
2023-04-20T11:29:35.031Z,8.70
2023-04-20T11:31:42.487Z,8.69
2023-04-20T11:33:49.616Z,8.73
2023-04-20T11:35:54.672Z,8.70
2023-04-20T11:38:02.266Z,8.85
2023-04-20T11:40:10.776Z,8.93
2023-04-20T11:42:15.838Z,9.20
2023-04-20T11:44:23.935Z,9.43
2023-04-20T11:46:32.225Z,9.57
2023-04-20T11:48:40.834Z,9.74
2023-04-20T11:50:48.427Z,10.10
2023-04-20T11:52:53.469Z,9.76
2023-04-20T11:55:01.188Z,10.29
2023-04-20T11:57:06.820Z,10.48
2023-04-20T11:59:12.047Z,10.75
2023-04-20T12:01:20.066Z,10.41
2023-04-20T12:03:25.466Z,10.80
2023-04-20T12:05:30.682Z,11.10
2023-04-20T12:07:35.845Z,10.96
2023-04-20T12:09:45.722Z,10.68
2023-04-20T12:11:53.415Z,10.82
2023-04-20T12:13:58.670Z,11.19
2023-04-20T12:16:03.799Z,11.70
2023-04-20T12:18:09.595Z,11.49
2023-04-20T12:20:15.545Z,10.76
2023-04-20T12:22:20.708Z,11.18
2023-04-20T12:24:26.514Z,11.49
2023-04-20T12:26:38.320Z,11.37
2023-04-20T12:28:50.069Z,11.09
2023-04-20T12:30:55.053Z,11.19
2023-04-20T12:33:00.350Z,11.05
2023-04-20T12:35:05.743Z,11.25
2023-04-20T12:37:11.301Z,11.79
2023-04-20T12:39:16.337Z,12.04
2023-04-20T12:41:26.882Z,12.29
2023-04-20T12:43:31.835Z,11.85
2023-04-20T12:45:41.755Z,12.08
2023-04-20T12:47:47.942Z,11.91
2023-04-20T12:49:53.019Z,12.49
2023-04-20T12:51:57.827Z,12.31
2023-04-20T12:54:03.340Z,12.13
2023-04-20T12:56:09.536Z,12.04
2023-04-20T12:58:16.245Z,11.80
2023-04-20T13:00:23.968Z,11.79
2023-04-20T13:02:34.255Z,11.65
2023-04-20T13:04:39.429Z,11.58
2023-04-20T13:06:44.685Z,11.38
2023-04-20T13:08:50.757Z,11.07
2023-04-20T13:10:55.688Z,11.06
2023-04-20T13:13:02.107Z,10.97
2023-04-20T13:15:11.106Z,10.68
2023-04-20T13:17:16.106Z,10.67
2023-04-20T13:19:25.517Z,10.57
2023-04-20T13:21:30.544Z,10.31
2023-04-20T13:23:35.518Z,10.14
2023-04-20T13:25:44.886Z,10.30
2023-04-20T13:27:49.900Z,10.32
2023-04-20T13:29:55.485Z,10.34
2023-04-20T13:32:00.713Z,10.48
2023-04-20T13:34:05.805Z,10.66
2023-04-20T13:36:14.474Z,10.66
2023-04-20T13:38:19.638Z,10.77
2023-04-20T13:40:24.828Z,10.79
2023-04-20T13:42:29.678Z,10.67
2023-04-20T13:44:34.580Z,10.61
2023-04-20T13:46:40.993Z,10.65
2023-04-20T13:48:46.165Z,10.47
2023-04-20T13:50:51.497Z,10.43
2023-04-20T13:52:59.516Z,10.48
2023-04-20T13:55:04.606Z,10.60
2023-04-20T13:57:09.834Z,10.63
2023-04-20T13:59:15.888Z,10.75
2023-04-20T14:01:21.020Z,10.99
2023-04-20T14:03:27.815Z,11.10
2023-04-20T14:05:33.037Z,11.13
2023-04-20T14:07:37.992Z,11.33
2023-04-20T14:09:46.513Z,11.32
2023-04-20T14:11:55.777Z,11.37
2023-04-20T14:14:02.227Z,11.40
2023-04-20T14:16:11.903Z,11.56
2023-04-20T14:18:19.502Z,11.55
2023-04-20T14:20:24.651Z,11.60
2023-04-20T14:22:34.509Z,11.52
2023-04-20T14:24:41.128Z,11.46
2023-04-20T14:26:50.002Z,11.31
2023-04-20T14:28:54.962Z,11.19
2023-04-20T14:31:01.018Z,11.14
2023-04-20T14:33:06.965Z,11.06
2023-04-20T14:35:13.049Z,11.06
2023-04-20T14:37:20.694Z,10.98
2023-04-20T14:39:25.930Z,11.05
2023-04-20T14:41:32.954Z,11.14
2023-04-20T14:43:41.616Z,11.12
2023-04-20T14:45:48.994Z,10.95
2023-04-20T14:47:57.070Z,10.91
2023-04-20T14:50:02.272Z,10.85
2023-04-20T14:52:07.322Z,10.79
2023-04-20T14:54:12.324Z,10.85
2023-04-20T14:56:19.941Z,10.87
2023-04-20T14:58:25.228Z,10.79
2023-04-20T15:00:33.165Z,10.76
2023-04-20T15:02:38.344Z,10.84
2023-04-20T15:04:45.545Z,10.84
2023-04-20T15:06:50.702Z,10.93
2023-04-20T15:08:59.006Z,10.97
2023-04-20T15:11:05.488Z,11.10
2023-04-20T15:13:11.885Z,11.05
2023-04-20T15:15:19.840Z,10.97
2023-04-20T15:17:27.671Z,10.90
2023-04-20T15:19:32.859Z,10.81
2023-04-20T15:21:38.215Z,10.85
2023-04-20T15:23:44.661Z,10.80
2023-04-20T15:25:49.893Z,10.66
2023-04-20T15:27:55.579Z,10.80
2023-04-20T15:30:01.151Z,10.81
2023-04-20T15:32:07.733Z,10.82
2023-04-20T15:34:19.385Z,10.80
2023-04-20T15:36:24.684Z,10.85
2023-04-20T15:38:29.837Z,10.92
2023-04-20T15:40:35.196Z,10.98
2023-04-20T15:42:40.970Z,11.04
2023-04-20T15:44:45.994Z,11.15
2023-04-20T15:46:54.534Z,11.10
2023-04-20T15:48:59.633Z,11.29
2023-04-20T15:51:07.889Z,11.34
2023-04-20T15:53:15.690Z,11.31
2023-04-20T15:55:23.794Z,11.48
2023-04-20T15:57:32.894Z,11.46
2023-04-20T15:59:38.056Z,11.47
2023-04-20T16:01:44.184Z,11.36
2023-04-20T16:03:50.109Z,11.43
2023-04-20T16:05:55.784Z,11.46
2023-04-20T16:08:03.686Z,11.33
2023-04-20T16:10:11.277Z,11.23
2023-04-20T16:12:19.632Z,11.36
2023-04-20T16:14:24.602Z,11.39
2023-04-20T16:16:30.280Z,11.42
2023-04-20T16:18:35.575Z,11.51
2023-04-20T16:20:43.539Z,11.57
2023-04-20T16:22:49.177Z,11.64
2023-04-20T16:24:57.005Z,11.69
2023-04-20T16:27:02.744Z,11.67
2023-04-20T16:29:08.268Z,11.67
2023-04-20T16:31:14.307Z,11.72
2023-04-20T16:33:19.852Z,11.67
2023-04-20T16:35:28.965Z,11.74
2023-04-20T16:37:35.727Z,11.86
2023-04-20T16:39:42.432Z,11.88
2023-04-20T16:41:50.156Z,11.87
2023-04-20T16:43:55.052Z,11.80
2023-04-20T16:46:00.258Z,11.72
2023-04-20T16:48:05.480Z,11.57
2023-04-20T16:50:12.695Z,11.59
2023-04-20T16:52:19.045Z,11.46
2023-04-20T16:54:27.308Z,11.44
2023-04-20T16:56:32.445Z,11.46
2023-04-20T16:58:41.927Z,11.47
2023-04-20T17:00:47.403Z,11.37
2023-04-20T17:02:55.796Z,11.38
2023-04-20T17:05:01.093Z,11.52
2023-04-20T17:07:07.592Z,11.43
2023-04-20T17:09:15.025Z,11.49
2023-04-20T17:11:20.715Z,11.48
2023-04-20T17:13:26.014Z,11.53
2023-04-20T17:15:33.642Z,11.48
2023-04-20T17:17:38.776Z,11.45
2023-04-20T17:19:45.361Z,11.42
2023-04-20T17:21:50.558Z,11.32
2023-04-20T17:23:55.810Z,11.30
2023-04-20T17:26:01.145Z,11.32
2023-04-20T17:28:06.743Z,11.39
2023-04-20T17:30:13.276Z,11.35
2023-04-20T17:32:23.972Z,11.35
2023-04-20T17:34:29.512Z,11.27
2023-04-20T17:36:35.241Z,11.24
2023-04-20T17:38:44.942Z,11.16
2023-04-20T17:40:50.410Z,11.08
2023-04-20T17:42:55.667Z,11.08
2023-04-20T17:45:00.621Z,11.13
2023-04-20T17:47:06.775Z,11.05
2023-04-20T17:49:14.738Z,11.03
2023-04-20T17:51:20.104Z,11.04
2023-04-20T17:53:26.058Z,10.91
2023-04-20T17:55:31.248Z,10.90
2023-04-20T17:57:36.656Z,10.87
2023-04-20T17:59:43.287Z,10.90
2023-04-20T18:01:51.640Z,10.86
2023-04-20T18:03:56.943Z,10.74
2023-04-20T18:06:04.621Z,10.71
2023-04-20T18:08:11.400Z,10.66
2023-04-20T18:10:16.523Z,10.63
2023-04-20T18:12:24.764Z,10.62
2023-04-20T18:14:29.984Z,10.57
2023-04-20T18:16:35.211Z,10.51
2023-04-20T18:18:42.462Z,10.47
2023-04-20T18:20:49.471Z,10.42
2023-04-20T18:22:58.498Z,10.37
2023-04-20T18:25:03.638Z,10.34
2023-04-20T18:27:08.881Z,10.28
2023-04-20T18:29:15.020Z,10.23
2023-04-20T18:31:20.254Z,10.15
2023-04-20T18:33:25.302Z,10.13
2023-04-20T18:35:30.575Z,10.08
2023-04-20T18:37:35.554Z,10.05
2023-04-20T18:39:43.249Z,10.05
2023-04-20T18:41:50.820Z,10.10
2023-04-20T18:43:56.548Z,10.04
2023-04-20T18:46:01.630Z,9.88
2023-04-20T18:48:07.284Z,9.87
2023-04-20T18:50:14.033Z,9.88
2023-04-20T18:52:22.204Z,9.84
2023-04-20T18:54:27.195Z,9.75
2023-04-20T18:56:35.208Z,9.66
2023-04-20T18:58:40.718Z,9.68
2023-04-20T19:00:45.890Z,9.61
2023-04-20T19:02:51.339Z,9.58
2023-04-20T19:04:56.351Z,9.52
2023-04-20T19:07:01.358Z,9.51
2023-04-20T19:09:08.209Z,9.37
2023-04-20T19:11:14.721Z,9.38
2023-04-20T19:13:23.980Z,9.31
2023-04-20T19:15:32.016Z,9.26
2023-04-20T19:17:38.120Z,9.27
2023-04-20T19:19:48.366Z,9.15
2023-04-20T19:21:54.126Z,9.15
2023-04-20T19:23:59.449Z,9.06
2023-04-20T19:26:04.401Z,9.10
2023-04-20T19:28:12.504Z,9.08
2023-04-20T19:30:20.365Z,8.94
2023-04-20T19:32:26.019Z,8.98
2023-04-20T19:34:31.483Z,8.92
2023-04-20T19:36:40.104Z,8.85
2023-04-20T19:38:45.251Z,8.83
2023-04-20T19:40:54.366Z,8.78
2023-04-20T19:42:59.520Z,8.83
2023-04-20T19:45:04.822Z,8.84
2023-04-20T19:47:12.729Z,8.85
2023-04-20T19:49:20.174Z,8.78
2023-04-20T19:51:25.950Z,8.73
2023-04-20T19:53:32.065Z,8.79
2023-04-20T19:55:41.036Z,8.76
2023-04-20T19:57:45.987Z,8.67
2023-04-20T19:59:53.672Z,8.66
2023-04-20T20:01:58.971Z,8.66
2023-04-20T20:04:06.940Z,8.61
2023-04-20T20:06:12.268Z,8.59
2023-04-20T20:08:20.068Z,8.54
2023-04-20T20:10:25.193Z,8.48
2023-04-20T20:12:30.447Z,8.40
2023-04-20T20:14:37.509Z,8.38
2023-04-20T20:16:42.727Z,8.36
2023-04-20T20:18:51.431Z,8.31
2023-04-20T20:20:59.181Z,8.23
2023-04-20T20:23:04.699Z,8.20
2023-04-20T20:25:12.403Z,8.22
2023-04-20T20:27:19.674Z,8.18
2023-04-20T20:29:25.125Z,8.19
2023-04-20T20:31:30.975Z,8.12
2023-04-20T20:33:36.203Z,8.13
2023-04-20T20:35:43.015Z,8.19
2023-04-20T20:37:54.740Z,8.23
2023-04-20T20:40:00.442Z,8.20
2023-04-20T20:42:07.752Z,8.22
2023-04-20T20:44:15.486Z,8.16
2023-04-20T20:46:23.532Z,8.14
2023-04-20T20:48:29.871Z,8.16
2023-04-20T20:50:35.061Z,8.07
2023-04-20T20:52:41.487Z,8.11
2023-04-20T20:54:51.519Z,8.10
2023-04-20T20:56:57.891Z,8.09
2023-04-20T20:59:03.311Z,8.13
2023-04-20T21:01:08.657Z,8.10
2023-04-20T21:03:15.837Z,8.07
2023-04-20T21:05:24.909Z,8.14
2023-04-20T21:07:30.210Z,8.16
2023-04-20T21:09:35.346Z,8.18
2023-04-20T21:11:43.039Z,8.14
2023-04-20T21:13:49.894Z,8.15
2023-04-20T21:15:54.923Z,8.24
2023-04-20T21:18:00.185Z,8.24
2023-04-20T21:20:06.174Z,8.25
2023-04-20T21:22:12.077Z,8.26
2023-04-20T21:24:19.726Z,8.28
2023-04-20T21:26:24.900Z,8.33
2023-04-20T21:28:33.105Z,8.35
2023-04-20T21:30:38.244Z,8.41
2023-04-20T21:32:43.295Z,8.41
2023-04-20T21:34:51.681Z,8.41
2023-04-20T21:37:04.022Z,8.47
2023-04-20T21:39:09.108Z,8.51
2023-04-20T21:41:16.022Z,8.53
2023-04-20T21:43:22.826Z,8.57
2023-04-20T21:45:30.830Z,8.55
2023-04-20T21:47:35.942Z,8.51
2023-04-20T21:49:44.640Z,8.58
2023-04-20T21:51:49.772Z,8.59
2023-04-20T21:53:54.730Z,8.59
2023-04-20T21:55:59.572Z,8.57
2023-04-20T21:58:04.773Z,8.56
2023-04-20T22:00:12.607Z,8.60
2023-04-20T22:02:20.326Z,8.56
2023-04-20T22:04:26.090Z,8.60
2023-04-20T22:06:32.162Z,8.60
2023-04-20T22:08:40.664Z,8.68
2023-04-20T22:10:45.500Z,8.66
2023-04-20T22:12:50.696Z,8.65
2023-04-20T22:14:55.792Z,8.62
2023-04-20T22:17:03.661Z,8.63
2023-04-20T22:19:12.377Z,8.63
2023-04-20T22:21:20.194Z,8.67
2023-04-20T22:23:25.198Z,8.67
2023-04-20T22:25:30.583Z,8.66
2023-04-20T22:27:38.791Z,8.67
2023-04-20T22:29:47.941Z,8.73
2023-04-20T22:31:53.212Z,8.70
2023-04-20T22:34:03.373Z,8.67
2023-04-20T22:36:14.669Z,8.63
2023-04-20T22:38:19.720Z,8.60
2023-04-20T22:40:24.842Z,8.62
2023-04-20T22:42:30.018Z,8.60
2023-04-20T22:44:35.092Z,8.60
2023-04-20T22:46:40.987Z,8.55
2023-04-20T22:48:48.465Z,8.48
2023-04-20T22:50:53.822Z,8.50
2023-04-20T22:53:01.313Z,8.50
2023-04-20T22:55:06.408Z,8.42
2023-04-20T22:57:11.654Z,8.29
2023-04-20T22:59:19.328Z,8.31
2023-04-20T23:01:24.654Z,8.22
2023-04-20T23:03:30.259Z,8.15
2023-04-20T23:05:40.382Z,8.12
2023-04-20T23:07:45.652Z,8.04
2023-04-20T23:09:56.920Z,8.06
2023-04-20T23:12:05.936Z,7.95
2023-04-20T23:14:14.750Z,7.96
2023-04-20T23:16:22.131Z,8.02
2023-04-20T23:18:27.181Z,7.94
2023-04-20T23:20:32.388Z,7.89
2023-04-20T23:22:40.759Z,7.87
2023-04-20T23:24:57.954Z,7.75
2023-04-20T23:27:05.723Z,7.82
2023-04-20T23:29:11.528Z,7.79
2023-04-20T23:31:16.543Z,7.75
2023-04-20T23:33:24.664Z,7.75
2023-04-20T23:35:29.998Z,7.74
2023-04-20T23:37:35.031Z,7.69
2023-04-20T23:39:40.370Z,7.67
2023-04-20T23:41:45.545Z,7.63
2023-04-20T23:43:54.387Z,7.66
2023-04-20T23:46:00.639Z,7.64
2023-04-20T23:48:14.394Z,7.65
2023-04-20T23:50:40.605Z,7.61
2023-04-20T23:53:22.087Z,7.59
2023-04-20T23:55:35.615Z,7.60
2023-04-20T23:57:56.115Z,7.58
